createdAt,value
2023-02-12T00:00:47.337Z,26.56
2023-02-12T00:01:49.900Z,29.74
2023-02-12T00:02:52.454Z,25.77
2023-02-12T00:03:54.975Z,26.07
2023-02-12T00:04:57.673Z,21.17
2023-02-12T00:06:00.238Z,26.69
2023-02-12T00:07:03.235Z,21.58
2023-02-12T00:08:05.811Z,26.76
2023-02-12T00:09:08.264Z,21.87
2023-02-12T00:10:11.353Z,21.06
2023-02-12T00:11:14.057Z,18.41
2023-02-12T00:12:16.626Z,22.75
2023-02-12T00:13:19.184Z,30.20
2023-02-12T00:14:21.735Z,28.29
2023-02-12T00:15:24.448Z,24.51
2023-02-12T00:16:27.390Z,33.97
2023-02-12T00:17:29.963Z,28.48
2023-02-12T00:18:32.524Z,25.57
2023-02-12T00:19:35.079Z,21.23
2023-02-12T00:20:38.047Z,19.27
2023-02-12T00:21:40.631Z,18.18
2023-02-12T00:22:43.173Z,20.65
2023-02-12T00:23:45.728Z,12.83
2023-02-12T00:24:48.281Z,25.17
2023-02-12T00:25:50.833Z,19.34
2023-02-12T00:26:53.742Z,26.54
2023-02-12T00:27:56.342Z,28.91
2023-02-12T00:28:58.865Z,16.18
2023-02-12T00:30:01.493Z,22.03
2023-02-12T00:31:04.142Z,19.29
2023-02-12T00:32:06.727Z,16.96
2023-02-12T00:33:09.278Z,20.33
2023-02-12T00:34:11.732Z,27.20
2023-02-12T00:35:14.279Z,28.78
2023-02-12T00:36:17.457Z,21.14
2023-02-12T00:37:20.044Z,20.03
2023-02-12T00:38:22.594Z,18.09
2023-02-12T00:39:25.145Z,28.61
2023-02-12T00:40:27.803Z,25.99
2023-02-12T00:41:30.362Z,29.27
2023-02-12T00:42:32.949Z,27.77
2023-02-12T00:43:35.529Z,24.51
2023-02-12T00:44:38.076Z,22.94
2023-02-12T00:45:40.632Z,27.45
2023-02-12T00:46:43.543Z,27.99
2023-02-12T00:47:46.084Z,27.71
2023-02-12T00:48:48.630Z,17.35
2023-02-12T00:49:51.093Z,21.20
2023-02-12T00:50:54.261Z,26.46
2023-02-12T00:51:56.819Z,36.42
2023-02-12T00:52:59.393Z,19.10
2023-02-12T00:54:01.949Z,26.10
2023-02-12T00:55:04.512Z,13.25
2023-02-12T00:56:07.560Z,23.77
2023-02-12T00:57:10.511Z,23.56
2023-02-12T00:58:13.086Z,28.71
2023-02-12T00:59:15.651Z,24.05
2023-02-12T01:00:18.225Z,27.25
2023-02-12T01:01:20.732Z,17.24
2023-02-12T01:02:23.532Z,25.61
2023-02-12T01:03:26.138Z,27.33
2023-02-12T01:04:28.704Z,18.89
2023-02-12T01:05:31.561Z,26.13
2023-02-12T01:06:34.213Z,24.13
2023-02-12T01:07:36.765Z,12.90
2023-02-12T01:08:39.352Z,20.05
2023-02-12T01:09:41.905Z,25.25
2023-02-12T01:10:44.568Z,20.83
2023-02-12T01:11:47.119Z,24.16
2023-02-12T01:12:49.683Z,23.47
2023-02-12T01:13:52.271Z,19.01
2023-02-12T01:14:54.833Z,14.97
2023-02-12T01:15:57.898Z,19.88
2023-02-12T01:17:00.980Z,30.00
2023-02-12T01:18:03.531Z,16.50
2023-02-12T01:19:06.121Z,26.11
2023-02-12T01:20:09.206Z,16.25
2023-02-12T01:21:11.759Z,19.50
2023-02-12T01:22:14.313Z,13.59
2023-02-12T01:23:16.873Z,20.73
2023-02-12T01:24:19.481Z,24.89
2023-02-12T01:25:22.045Z,24.74
2023-02-12T01:26:25.012Z,19.15
2023-02-12T01:27:27.563Z,24.83
2023-02-12T01:28:30.154Z,20.98
2023-02-12T01:29:32.722Z,24.71
2023-02-12T01:30:35.626Z,25.45
2023-02-12T01:31:38.350Z,23.93
2023-02-12T01:32:41.065Z,16.83
2023-02-12T01:33:44.032Z,9.59
2023-02-12T01:34:46.598Z,14.90
2023-02-12T01:35:49.161Z,19.91
2023-02-12T01:36:52.027Z,19.39
2023-02-12T01:37:56.844Z,18.89
2023-02-12T01:38:58.936Z,16.36
2023-02-12T01:40:01.541Z,12.84
2023-02-12T01:41:04.139Z,16.45
2023-02-12T01:42:06.874Z,11.56
2023-02-12T01:43:09.427Z,15.95
2023-02-12T01:44:11.995Z,10.12
2023-02-12T01:45:14.606Z,23.37
2023-02-12T01:46:17.952Z,17.68
2023-02-12T01:47:20.534Z,13.71
2023-02-12T01:48:23.086Z,22.24
2023-02-12T01:49:25.647Z,15.71
2023-02-12T01:50:28.552Z,21.26
2023-02-12T01:51:31.119Z,26.83
2023-02-12T01:52:33.668Z,14.15
2023-02-12T01:53:36.225Z,16.46
2023-02-12T01:54:38.791Z,22.74
2023-02-12T01:55:41.352Z,21.59
2023-02-12T01:56:44.212Z,13.44
2023-02-12T01:57:46.776Z,25.45
2023-02-12T01:58:49.327Z,20.12
2023-02-12T01:59:51.893Z,15.29
2023-02-12T02:00:54.594Z,16.92
2023-02-12T02:01:57.256Z,15.35
2023-02-12T02:02:59.972Z,14.79
2023-02-12T02:04:02.602Z,12.63
2023-02-12T02:05:05.152Z,15.87
2023-02-12T02:06:08.552Z,15.30
2023-02-12T02:07:11.086Z,14.50
2023-02-12T02:08:13.646Z,9.97
2023-02-12T02:09:16.211Z,19.89
2023-02-12T02:10:19.259Z,20.69
2023-02-12T02:11:21.814Z,17.26
2023-02-12T02:12:24.371Z,17.35
2023-02-12T02:13:26.936Z,21.21
2023-02-12T02:14:29.510Z,41.63
2023-02-12T02:15:32.059Z,16.14
2023-02-12T02:16:35.033Z,18.36
2023-02-12T02:17:37.578Z,23.83
2023-02-12T02:18:40.135Z,23.43
2023-02-12T02:19:42.591Z,17.35
2023-02-12T02:20:45.251Z,8.65
2023-02-12T02:21:47.809Z,16.48
2023-02-12T02:22:50.375Z,19.31
2023-02-12T02:23:52.966Z,17.90
2023-02-12T02:24:55.539Z,23.83
2023-02-12T02:25:58.146Z,16.07
2023-02-12T02:27:00.968Z,23.77
2023-02-12T02:28:03.569Z,12.90
2023-02-12T02:29:06.373Z,12.81
2023-02-12T02:30:09.346Z,17.02
2023-02-12T02:31:12.036Z,18.65
2023-02-12T02:32:14.657Z,15.09
2023-02-12T02:33:17.222Z,14.25
2023-02-12T02:34:19.775Z,15.47
2023-02-12T02:35:22.339Z,15.39
2023-02-12T02:36:26.224Z,25.60
2023-02-12T02:37:28.994Z,20.56
2023-02-12T02:38:31.531Z,15.31
2023-02-12T02:39:34.113Z,15.01
2023-02-12T02:40:36.881Z,19.04
2023-02-12T02:41:39.481Z,19.73
2023-02-12T02:42:42.053Z,19.51
2023-02-12T02:43:44.618Z,18.93
2023-02-12T02:44:47.169Z,17.17
2023-02-12T02:45:49.728Z,19.60
2023-02-12T02:46:52.958Z,19.15
2023-02-12T02:47:55.465Z,18.78
2023-02-12T02:48:58.021Z,18.35
2023-02-12T02:50:00.623Z,19.05
2023-02-12T02:51:03.201Z,20.95
2023-02-12T02:52:05.746Z,23.09
2023-02-12T02:53:08.341Z,17.23
2023-02-12T02:54:10.861Z,22.43
2023-02-12T02:55:13.428Z,11.75
2023-02-12T02:56:16.709Z,17.95
2023-02-12T02:57:19.264Z,20.18
2023-02-12T02:58:21.821Z,11.78
2023-02-12T02:59:24.378Z,20.63
2023-02-12T03:00:27.042Z,13.81
2023-02-12T03:01:29.620Z,15.27
2023-02-12T03:02:32.173Z,21.42
2023-02-12T03:03:34.728Z,15.74
2023-02-12T03:04:37.290Z,22.46
2023-02-12T03:05:39.846Z,18.71
2023-02-12T03:06:42.709Z,21.66
2023-02-12T03:07:45.273Z,16.85
2023-02-12T03:08:47.837Z,17.69
2023-02-12T03:09:50.387Z,14.77
2023-02-12T03:10:53.046Z,25.74
2023-02-12T03:11:55.633Z,11.96
2023-02-12T03:12:58.191Z,17.07
2023-02-12T03:14:00.760Z,23.93
2023-02-12T03:15:03.315Z,16.91
2023-02-12T03:16:06.188Z,13.67
2023-02-12T03:17:08.740Z,14.80
2023-02-12T03:18:11.296Z,21.40
2023-02-12T03:19:13.865Z,20.07
2023-02-12T03:20:18.136Z,17.49
2023-02-12T03:21:20.695Z,22.77
2023-02-12T03:22:23.295Z,13.69
2023-02-12T03:23:25.887Z,18.98
2023-02-12T03:24:28.437Z,12.39
2023-02-12T03:25:30.990Z,12.91
2023-02-12T03:26:33.744Z,15.91
2023-02-12T03:27:36.336Z,16.07
2023-02-12T03:28:38.957Z,22.01
2023-02-12T03:29:41.537Z,10.42
2023-02-12T03:30:45.053Z,23.87
2023-02-12T03:31:47.623Z,13.43
2023-02-12T03:32:50.442Z,18.67
2023-02-12T03:33:52.998Z,20.63
2023-02-12T03:34:55.568Z,12.43
2023-02-12T03:35:58.121Z,18.69
2023-02-12T03:37:01.081Z,11.40
2023-02-12T03:38:03.539Z,18.00
2023-02-12T03:39:06.088Z,19.59
2023-02-12T03:40:09.355Z,21.64
2023-02-12T03:41:11.909Z,19.40
2023-02-12T03:42:14.464Z,13.17
2023-02-12T03:43:17.019Z,16.38
2023-02-12T03:44:19.580Z,16.29
2023-02-12T03:45:22.140Z,13.15
2023-02-12T03:46:25.175Z,14.93
2023-02-12T03:47:27.747Z,19.57
2023-02-12T03:48:30.215Z,24.92
2023-02-12T03:49:32.763Z,19.88
2023-02-12T03:50:35.427Z,13.33
2023-02-12T03:51:37.979Z,13.00
2023-02-12T03:52:40.535Z,15.72
2023-02-12T03:53:43.088Z,19.99
2023-02-12T03:54:45.644Z,19.81
2023-02-12T03:55:48.198Z,15.09
2023-02-12T03:56:51.169Z,15.65
2023-02-12T03:57:53.714Z,10.42
2023-02-12T03:58:56.290Z,15.88
2023-02-12T03:59:58.853Z,14.15
2023-02-12T04:01:01.569Z,10.13
2023-02-12T04:02:04.272Z,15.18
2023-02-12T04:03:06.818Z,21.71
2023-02-12T04:04:09.517Z,22.29
2023-02-12T04:05:12.188Z,23.21
2023-02-12T04:06:15.154Z,11.12
2023-02-12T04:07:17.697Z,11.91
2023-02-12T04:08:20.248Z,20.91
2023-02-12T04:09:22.864Z,18.31
2023-02-12T04:10:25.514Z,18.79
2023-02-12T04:11:28.133Z,10.72
2023-02-12T04:12:30.697Z,18.01
2023-02-12T04:13:33.250Z,19.62
2023-02-12T04:14:35.758Z,20.26
2023-02-12T04:15:38.636Z,17.83
2023-02-12T04:16:41.657Z,16.31
2023-02-12T04:17:44.534Z,21.36
2023-02-12T04:18:47.492Z,20.45
2023-02-12T04:19:50.076Z,15.63
2023-02-12T04:20:52.819Z,17.69
2023-02-12T04:21:55.396Z,20.37
2023-02-12T04:22:57.950Z,17.04
2023-02-12T04:24:00.514Z,11.18
2023-02-12T04:25:03.133Z,10.82
2023-02-12T04:26:05.882Z,16.76
2023-02-12T04:27:08.436Z,18.47
2023-02-12T04:28:11.024Z,22.25
2023-02-12T04:29:13.985Z,20.61
2023-02-12T04:30:17.164Z,16.12
2023-02-12T04:31:19.826Z,16.35
2023-02-12T04:32:22.500Z,18.33
2023-02-12T04:33:25.067Z,16.73
2023-02-12T04:34:27.617Z,31.04
2023-02-12T04:35:30.103Z,15.98
2023-02-12T04:36:32.929Z,17.73
2023-02-12T04:37:35.399Z,25.05
2023-02-12T04:38:37.946Z,16.05
2023-02-12T04:39:40.408Z,14.69
2023-02-12T04:40:43.344Z,15.09
2023-02-12T04:41:45.886Z,20.73
2023-02-12T04:42:48.354Z,24.75
2023-02-12T04:43:50.898Z,17.06
2023-02-12T04:44:53.454Z,16.64
2023-02-12T04:45:56.314Z,32.19
2023-02-12T04:46:59.325Z,16.69
2023-02-12T04:48:01.877Z,19.36
2023-02-12T04:49:04.432Z,14.97
2023-02-12T04:50:07.290Z,14.19
2023-02-12T04:51:09.889Z,15.32
2023-02-12T04:52:12.444Z,23.04
2023-02-12T04:53:15.011Z,14.19
2023-02-12T04:54:17.566Z,9.64
2023-02-12T04:55:20.108Z,15.05
2023-02-12T04:56:22.712Z,20.25
2023-02-12T04:57:25.278Z,22.14
2023-02-12T04:58:27.734Z,22.81
2023-02-12T04:59:30.288Z,22.47
2023-02-12T05:00:33.052Z,16.51
2023-02-12T05:01:35.712Z,18.00
2023-02-12T05:02:38.379Z,16.04
2023-02-12T05:03:40.938Z,20.21
2023-02-12T05:04:43.552Z,18.50
2023-02-12T05:05:46.155Z,20.79
2023-02-12T05:06:49.109Z,21.35
2023-02-12T05:07:51.659Z,22.47
2023-02-12T05:08:54.287Z,15.94
2023-02-12T05:09:56.818Z,22.42
2023-02-12T05:10:59.500Z,18.62
2023-02-12T05:12:02.068Z,18.70
2023-02-12T05:13:04.606Z,17.82
2023-02-12T05:14:07.156Z,21.61
2023-02-12T05:15:09.723Z,18.92
2023-02-12T05:16:12.809Z,18.61
2023-02-12T05:17:15.440Z,17.84
2023-02-12T05:18:17.997Z,16.81
2023-02-12T05:19:20.630Z,15.85
2023-02-12T05:20:23.465Z,22.52
2023-02-12T05:21:25.917Z,13.65
2023-02-12T05:22:28.378Z,15.53
2023-02-12T05:23:30.950Z,14.31
2023-02-12T05:24:33.504Z,22.09
2023-02-12T05:25:35.972Z,19.59
2023-02-12T05:26:38.817Z,20.08
2023-02-12T05:27:41.400Z,19.71
2023-02-12T05:28:43.951Z,18.35
2023-02-12T05:29:46.500Z,16.10
2023-02-12T05:30:49.344Z,19.51
2023-02-12T05:31:52.027Z,14.41
2023-02-12T05:32:54.899Z,22.09
2023-02-12T05:33:57.466Z,19.16
2023-02-12T05:34:59.925Z,22.55
2023-02-12T05:36:02.574Z,17.09
2023-02-12T05:37:05.126Z,16.95
2023-02-12T05:38:07.718Z,18.54
2023-02-12T05:39:10.276Z,14.44
2023-02-12T05:40:13.850Z,18.93
2023-02-12T05:41:16.412Z,15.49
2023-02-12T05:42:18.969Z,13.14
2023-02-12T05:43:21.586Z,9.91
2023-02-12T05:44:24.154Z,14.77
2023-02-12T05:45:26.713Z,13.77
2023-02-12T05:46:29.607Z,13.61
2023-02-12T05:47:32.130Z,15.90
2023-02-12T05:48:34.687Z,7.81
2023-02-12T05:49:37.162Z,6.65
2023-02-12T05:50:39.919Z,10.27
2023-02-12T05:51:42.482Z,7.12
2023-02-12T05:52:45.041Z,5.61
2023-02-12T05:53:47.602Z,4.67
2023-02-12T05:54:50.179Z,5.93
2023-02-12T05:55:52.943Z,4.35
2023-02-12T05:56:56.305Z,3.96
2023-02-12T05:57:58.884Z,5.23
2023-02-12T05:59:01.444Z,5.03
2023-02-12T06:00:04.305Z,4.51
2023-02-12T06:01:07.279Z,6.58
2023-02-12T06:02:09.860Z,6.17
2023-02-12T06:03:12.606Z,6.24
2023-02-12T06:04:15.236Z,3.93
2023-02-12T06:05:17.968Z,5.31
2023-02-12T06:06:20.982Z,5.82
2023-02-12T06:07:23.542Z,5.63
2023-02-12T06:08:26.103Z,3.77
2023-02-12T06:09:28.663Z,3.67
2023-02-12T06:10:31.539Z,4.44
2023-02-12T06:11:34.103Z,2.73
2023-02-12T06:12:36.650Z,4.47
2023-02-12T06:13:39.209Z,3.63
2023-02-12T06:14:41.807Z,3.42
2023-02-12T06:15:44.385Z,3.59
2023-02-12T06:16:47.013Z,3.01
2023-02-12T06:17:49.565Z,1.58
2023-02-12T06:18:52.125Z,2.74
2023-02-12T06:19:54.726Z,1.83
2023-02-12T06:20:57.670Z,1.75
2023-02-12T06:22:00.224Z,2.49
2023-02-12T06:23:02.801Z,1.11
2023-02-12T06:24:05.343Z,2.25
2023-02-12T06:25:07.827Z,1.94
2023-02-12T06:26:11.303Z,2.48
2023-02-12T06:27:13.863Z,3.00
2023-02-12T06:28:16.455Z,2.78
2023-02-12T06:29:18.980Z,1.62
2023-02-12T06:30:21.647Z,1.45
2023-02-12T06:31:24.351Z,0.97
2023-02-12T06:32:27.072Z,1.79
2023-02-12T06:33:29.638Z,1.93
2023-02-12T06:34:32.189Z,2.62
2023-02-12T06:35:34.753Z,1.99
2023-02-12T06:36:37.728Z,2.86
2023-02-12T06:37:40.279Z,1.41
2023-02-12T06:38:42.841Z,2.77
2023-02-12T06:39:45.397Z,3.80
2023-02-12T06:40:48.405Z,3.52
2023-02-12T06:41:50.970Z,2.32
2023-02-12T06:42:53.536Z,1.37
2023-02-12T06:43:56.085Z,1.51
2023-02-12T06:44:58.645Z,2.19
2023-02-12T06:46:01.299Z,2.22
2023-02-12T06:47:03.857Z,2.20
2023-02-12T06:48:06.451Z,13.62
2023-02-12T06:49:08.982Z,8.45
2023-02-12T06:50:12.047Z,3.01
2023-02-12T06:51:14.621Z,18.52
2023-02-12T06:52:17.181Z,43.97
2023-02-12T06:53:19.727Z,41.58
2023-02-12T06:54:22.354Z,77.09
2023-02-12T06:55:25.103Z,31.79
2023-02-12T06:56:27.786Z,33.30
2023-02-12T06:57:30.374Z,41.87
2023-02-12T06:58:32.910Z,10.18
2023-02-12T06:59:35.499Z,9.35
2023-02-12T07:00:38.473Z,65.56
2023-02-12T07:01:41.060Z,43.46
2023-02-12T07:02:43.622Z,66.06
2023-02-12T07:03:46.235Z,63.86
2023-02-12T07:04:49.176Z,47.67
2023-02-12T07:05:51.844Z,37.86
2023-02-12T07:06:54.834Z,84.83
2023-02-12T07:07:57.369Z,40.43
2023-02-12T07:08:59.934Z,26.05
2023-02-12T07:10:02.793Z,57.32
2023-02-12T07:11:05.376Z,29.97
2023-02-12T07:12:07.858Z,15.64
2023-02-12T07:13:10.409Z,11.33
2023-02-12T07:14:12.963Z,11.71
2023-02-12T07:15:15.540Z,5.66
2023-02-12T07:16:18.591Z,3.90
2023-02-12T07:17:21.162Z,2.08
2023-02-12T07:18:23.791Z,3.13
2023-02-12T07:19:26.356Z,8.01
2023-02-12T07:20:29.210Z,3.94
2023-02-12T07:21:31.782Z,6.72
2023-02-12T07:22:34.337Z,10.80
2023-02-12T07:23:36.920Z,5.08
2023-02-12T07:24:39.510Z,7.46
2023-02-12T07:25:42.156Z,4.69
2023-02-12T07:26:44.959Z,6.16
2023-02-12T07:27:47.510Z,3.21
2023-02-12T07:28:50.089Z,7.25
2023-02-12T07:29:52.699Z,5.23
2023-02-12T07:30:55.388Z,3.85
2023-02-12T07:31:58.017Z,3.21
2023-02-12T07:33:00.584Z,4.68
2023-02-12T07:34:03.142Z,2.41
2023-02-12T07:35:05.632Z,2.41
2023-02-12T07:36:09.295Z,1.76
2023-02-12T07:37:11.843Z,1.17
2023-02-12T07:38:14.471Z,2.04
2023-02-12T07:39:17.003Z,2.82
2023-02-12T07:40:20.204Z,3.07
2023-02-12T07:41:22.756Z,3.77
2023-02-12T07:42:25.371Z,23.40
2023-02-12T07:43:27.953Z,35.20
2023-02-12T07:44:30.695Z,10.79
2023-02-12T07:45:33.240Z,43.53
2023-02-12T07:46:36.196Z,30.23
2023-02-12T07:47:38.784Z,15.24
2023-02-12T07:48:41.389Z,13.51
2023-02-12T07:49:43.950Z,16.14
2023-02-12T07:50:46.938Z,7.53
2023-02-12T07:51:49.474Z,6.67
2023-02-12T07:52:52.124Z,4.59
2023-02-12T07:53:54.667Z,5.43
2023-02-12T07:54:57.230Z,7.53
2023-02-12T07:55:59.890Z,23.23
2023-02-12T07:57:02.432Z,9.54
2023-02-12T07:58:05.076Z,11.55
2023-02-12T07:59:07.644Z,16.20
2023-02-12T08:00:11.214Z,15.41
2023-02-12T08:01:13.801Z,19.75
2023-02-12T08:02:16.406Z,13.57
2023-02-12T08:03:18.992Z,5.68
2023-02-12T08:04:21.715Z,8.75
2023-02-12T08:05:24.585Z,17.37
2023-02-12T08:06:27.278Z,22.93
2023-02-12T08:07:29.867Z,18.46
2023-02-12T08:08:32.465Z,18.35
2023-02-12T08:09:35.060Z,16.58
2023-02-12T08:10:38.233Z,11.63
2023-02-12T08:11:40.789Z,13.39
2023-02-12T08:12:43.397Z,4.39
2023-02-12T08:13:46.029Z,17.23
2023-02-12T08:14:48.571Z,13.95
2023-02-12T08:15:51.024Z,25.71
2023-02-12T08:16:54.000Z,12.82
2023-02-12T08:17:56.651Z,18.20
2023-02-12T08:19:14.296Z,10.94
2023-02-12T08:20:03.824Z,7.02
2023-02-12T08:21:06.398Z,25.75
2023-02-12T08:22:08.951Z,12.57
2023-02-12T08:23:11.498Z,7.34
2023-02-12T08:24:14.119Z,17.71
2023-02-12T08:25:16.642Z,15.78
2023-02-12T08:26:20.895Z,10.24
2023-02-12T08:27:23.475Z,17.23
2023-02-12T08:28:26.709Z,14.39
2023-02-12T08:29:29.325Z,7.99
2023-02-12T08:30:32.279Z,8.29
2023-02-12T08:31:34.877Z,7.40
2023-02-12T08:32:37.682Z,10.94
2023-02-12T08:33:40.243Z,14.11
2023-02-12T08:34:42.813Z,7.08
2023-02-12T08:35:45.359Z,6.77
2023-02-12T08:36:48.039Z,9.52
2023-02-12T08:37:50.584Z,14.11
2023-02-12T08:38:53.141Z,18.17
2023-02-12T08:39:55.708Z,5.43
2023-02-12T08:40:58.393Z,2.66
2023-02-12T08:42:00.938Z,2.49
2023-02-12T08:43:03.400Z,2.56
2023-02-12T08:44:06.047Z,4.95
2023-02-12T08:45:08.625Z,7.86
2023-02-12T08:46:12.094Z,5.69
2023-02-12T08:47:14.655Z,6.59
2023-02-12T08:48:17.219Z,6.07
2023-02-12T08:49:19.802Z,3.98
2023-02-12T08:50:22.448Z,2.53
2023-02-12T08:51:24.920Z,2.39
2023-02-12T08:52:27.474Z,1.13
2023-02-12T08:53:30.043Z,1.90
2023-02-12T08:54:32.595Z,9.82
2023-02-12T08:55:35.154Z,6.67
2023-02-12T08:56:38.123Z,9.89
2023-02-12T08:57:40.667Z,8.85
2023-02-12T08:58:43.230Z,11.59
2023-02-12T08:59:45.800Z,7.63
2023-02-12T09:00:48.878Z,5.05
2023-02-12T09:01:51.334Z,4.48
2023-02-12T09:02:53.896Z,8.02
2023-02-12T09:03:56.440Z,2.83
2023-02-12T09:04:59.009Z,4.84
2023-02-12T09:06:01.551Z,1.46
2023-02-12T09:07:04.107Z,1.20
2023-02-12T09:08:06.676Z,6.70
2023-02-12T09:09:09.140Z,5.10
2023-02-12T09:10:12.193Z,6.24
2023-02-12T09:11:14.753Z,3.23
2023-02-12T09:12:17.309Z,7.96
2023-02-12T09:13:19.893Z,15.63
2023-02-12T09:14:22.354Z,21.28
2023-02-12T09:15:24.907Z,18.71
2023-02-12T09:16:27.645Z,11.34
2023-02-12T09:17:30.242Z,12.23
2023-02-12T09:18:32.807Z,7.36
2023-02-12T09:19:35.264Z,5.97
2023-02-12T09:20:37.923Z,10.87
2023-02-12T09:21:40.474Z,9.65
2023-02-12T09:22:42.926Z,3.58
2023-02-12T09:23:45.414Z,2.14
2023-02-12T09:24:47.950Z,10.97
2023-02-12T09:25:50.506Z,5.72
2023-02-12T09:26:53.356Z,10.55
2023-02-12T09:27:55.911Z,15.91
2023-02-12T09:28:58.501Z,6.45
2023-02-12T09:30:01.056Z,3.67
2023-02-12T09:31:03.638Z,2.97
2023-02-12T09:32:06.400Z,17.16
2023-02-12T09:33:09.127Z,23.98
2023-02-12T09:34:11.693Z,19.00
2023-02-12T09:35:14.153Z,12.32
2023-02-12T09:36:17.418Z,4.15
2023-02-12T09:37:20.001Z,3.01
2023-02-12T09:38:22.528Z,6.68
2023-02-12T09:39:25.082Z,1.85
2023-02-12T09:40:28.060Z,9.09
2023-02-12T09:41:30.614Z,4.12
2023-02-12T09:42:33.169Z,9.31
2023-02-12T09:43:35.765Z,3.02
2023-02-12T09:44:38.329Z,4.15
2023-02-12T09:45:40.881Z,5.51
2023-02-12T09:46:43.862Z,7.21
2023-02-12T09:47:46.408Z,14.71
2023-02-12T09:48:48.965Z,8.33
2023-02-12T09:49:51.526Z,11.69
2023-02-12T09:50:54.503Z,3.32
2023-02-12T09:51:57.061Z,5.24
2023-02-12T09:52:59.613Z,4.57
2023-02-12T09:54:02.173Z,11.11
2023-02-12T09:55:04.736Z,7.35
2023-02-12T09:56:07.495Z,8.76
2023-02-12T09:57:10.061Z,12.85
2023-02-12T09:58:12.604Z,16.21
2023-02-12T09:59:15.160Z,8.87
2023-02-12T10:00:19.457Z,8.15
2023-02-12T10:01:23.684Z,1.89
2023-02-12T10:02:26.206Z,3.59
2023-02-12T10:03:28.791Z,2.35
2023-02-12T10:04:31.336Z,6.41
2023-02-12T10:05:33.903Z,8.20
2023-02-12T10:06:36.648Z,9.84
2023-02-12T10:07:39.212Z,4.51
2023-02-12T10:08:41.767Z,4.71
2023-02-12T10:09:44.330Z,7.13
2023-02-12T10:10:47.290Z,6.81
2023-02-12T10:11:49.872Z,3.03
2023-02-12T10:12:52.431Z,1.86
2023-02-12T10:13:54.982Z,2.83
2023-02-12T10:14:57.549Z,2.79
2023-02-12T10:16:00.197Z,3.95
2023-02-12T10:17:03.083Z,2.83
2023-02-12T10:18:05.657Z,1.39
2023-02-12T10:19:08.214Z,3.49
2023-02-12T10:20:11.416Z,6.89
2023-02-12T10:21:13.961Z,2.77
2023-02-12T10:22:16.518Z,2.80
2023-02-12T10:23:19.100Z,5.49
2023-02-12T10:24:21.659Z,7.65
2023-02-12T10:25:24.482Z,4.59
2023-02-12T10:26:27.101Z,4.56
2023-02-12T10:27:29.658Z,8.77
2023-02-12T10:28:32.276Z,8.77
2023-02-12T10:29:34.795Z,6.11
2023-02-12T10:30:37.532Z,3.53
2023-02-12T10:31:40.259Z,6.15
2023-02-12T10:32:43.099Z,7.05
2023-02-12T10:33:45.660Z,4.53
2023-02-12T10:34:48.302Z,5.47
2023-02-12T10:35:50.879Z,7.60
2023-02-12T10:36:53.739Z,4.88
2023-02-12T10:37:56.621Z,2.64
2023-02-12T10:39:00.657Z,7.86
2023-02-12T10:40:03.326Z,3.35
2023-02-12T10:41:05.892Z,3.43
2023-02-12T10:42:08.642Z,3.25
2023-02-12T10:43:11.203Z,3.23
2023-02-12T10:44:13.833Z,6.61
2023-02-12T10:45:17.520Z,3.31
2023-02-12T10:46:20.629Z,3.68
2023-02-12T10:47:23.290Z,5.56
2023-02-12T10:48:25.809Z,4.38
2023-02-12T10:49:28.564Z,2.21
2023-02-12T10:50:31.222Z,2.71
2023-02-12T10:51:33.851Z,2.41
2023-02-12T10:52:36.396Z,1.95
2023-02-12T10:53:38.954Z,2.45
2023-02-12T10:54:41.596Z,1.69
2023-02-12T10:55:44.074Z,4.78
2023-02-12T10:56:47.308Z,6.78
2023-02-12T10:57:49.861Z,6.59
2023-02-12T10:58:52.418Z,4.24
2023-02-12T10:59:54.963Z,7.51
2023-02-12T11:00:57.923Z,3.77
2023-02-12T11:02:00.562Z,2.91
2023-02-12T11:03:03.265Z,2.66
2023-02-12T11:04:05.821Z,2.01
2023-02-12T11:05:08.469Z,3.71
2023-02-12T11:06:11.880Z,1.91
2023-02-12T11:07:14.395Z,2.50
2023-02-12T11:08:16.866Z,3.44
2023-02-12T11:09:19.426Z,4.63
2023-02-12T11:10:22.860Z,1.54
2023-02-12T11:11:25.402Z,3.14
2023-02-12T11:12:27.960Z,5.39
2023-02-12T11:13:30.523Z,2.51
2023-02-12T11:14:33.072Z,4.83
2023-02-12T11:15:35.524Z,4.25
2023-02-12T11:16:38.581Z,5.35
2023-02-12T11:17:41.146Z,6.56
2023-02-12T11:18:43.712Z,3.07
2023-02-12T11:19:46.263Z,3.00
2023-02-12T11:20:48.927Z,5.21
2023-02-12T11:21:51.555Z,1.63
2023-02-12T11:22:54.240Z,2.54
2023-02-12T11:23:56.802Z,2.67
2023-02-12T11:24:59.364Z,3.47
2023-02-12T11:26:01.922Z,4.31
2023-02-12T11:27:04.468Z,4.03
2023-02-12T11:28:07.109Z,2.61
2023-02-12T11:29:10.142Z,3.06
2023-02-12T11:30:14.778Z,2.54
2023-02-12T11:31:17.288Z,3.25
2023-02-12T11:32:20.093Z,1.36
2023-02-12T11:33:22.661Z,2.61
2023-02-12T11:34:25.219Z,2.21
2023-02-12T11:35:27.774Z,2.46
2023-02-12T11:36:30.532Z,4.48
2023-02-12T11:37:33.085Z,4.53
2023-02-12T11:38:35.643Z,10.55
2023-02-12T11:39:38.200Z,2.15
2023-02-12T11:40:41.481Z,1.51
2023-02-12T11:41:44.133Z,3.34
2023-02-12T11:42:46.688Z,2.54
2023-02-12T11:43:50.071Z,1.48
2023-02-12T11:44:53.446Z,1.69
2023-02-12T11:45:55.993Z,4.10
2023-02-12T11:46:58.831Z,3.66
2023-02-12T11:48:01.405Z,2.59
2023-02-12T11:49:04.012Z,2.23
2023-02-12T11:50:07.074Z,1.88
2023-02-12T11:51:09.633Z,2.17
2023-02-12T11:52:12.188Z,2.33
2023-02-12T11:53:14.742Z,1.71
2023-02-12T11:54:17.202Z,2.58
2023-02-12T11:55:19.759Z,4.67
2023-02-12T11:56:22.725Z,2.54
2023-02-12T11:57:25.273Z,3.75
2023-02-12T11:58:27.826Z,3.19
2023-02-12T11:59:30.446Z,7.60
2023-02-12T12:00:33.100Z,4.42
2023-02-12T12:01:35.665Z,3.01
2023-02-12T12:02:38.209Z,3.11
2023-02-12T12:03:40.764Z,5.11
2023-02-12T12:04:43.352Z,4.71
2023-02-12T12:05:45.960Z,2.95
2023-02-12T12:06:48.792Z,6.55
2023-02-12T12:07:51.360Z,4.39
2023-02-12T12:08:53.960Z,3.07
2023-02-12T12:09:56.544Z,2.14
2023-02-12T12:10:59.190Z,1.28
2023-02-12T12:12:01.762Z,4.33
2023-02-12T12:13:04.338Z,2.05
2023-02-12T12:14:07.201Z,2.22
2023-02-12T12:15:09.770Z,3.33
2023-02-12T12:16:13.548Z,4.34
2023-02-12T12:17:16.101Z,4.13
2023-02-12T12:18:18.643Z,4.89
2023-02-12T12:19:21.214Z,3.39
2023-02-12T12:20:23.909Z,7.21
2023-02-12T12:21:26.509Z,4.49
2023-02-12T12:22:29.069Z,5.21
2023-02-12T12:23:31.626Z,5.65
2023-02-12T12:24:34.216Z,4.32
2023-02-12T12:25:36.807Z,5.12
2023-02-12T12:26:39.565Z,5.44
2023-02-12T12:27:42.232Z,5.97
2023-02-12T12:28:44.788Z,3.34
2023-02-12T12:29:47.509Z,3.62
2023-02-12T12:30:50.762Z,2.46
2023-02-12T12:31:53.482Z,6.14
2023-02-12T12:32:56.022Z,2.65
2023-02-12T12:33:58.594Z,2.55
2023-02-12T12:35:01.195Z,1.95
2023-02-12T12:36:03.869Z,2.25
2023-02-12T12:37:06.450Z,2.71
2023-02-12T12:38:09.030Z,5.21
2023-02-12T12:39:11.590Z,2.67
2023-02-12T12:40:14.553Z,2.62
2023-02-12T12:41:17.133Z,4.95
2023-02-12T12:42:19.720Z,5.86
2023-02-12T12:43:22.294Z,8.05
2023-02-12T12:44:24.878Z,5.85
2023-02-12T12:45:27.432Z,6.47
2023-02-12T12:46:30.646Z,3.08
2023-02-12T12:47:33.244Z,1.92
2023-02-12T12:48:36.198Z,6.43
2023-02-12T12:49:38.773Z,2.74
2023-02-12T12:50:41.557Z,1.96
2023-02-12T12:51:44.124Z,1.49
2023-02-12T12:52:46.699Z,4.31
2023-02-12T12:53:49.365Z,5.64
2023-02-12T12:54:51.946Z,3.29
2023-02-12T12:55:54.925Z,5.55
2023-02-12T12:57:01.322Z,2.80
2023-02-12T12:58:05.869Z,1.99
2023-02-12T12:59:08.624Z,2.05
2023-02-12T13:00:11.809Z,1.96
2023-02-12T13:01:14.442Z,2.29
2023-02-12T13:02:17.045Z,5.31
2023-02-12T13:03:19.604Z,4.00
2023-02-12T13:04:22.489Z,5.92
2023-02-12T13:05:25.410Z,5.44
2023-02-12T13:06:28.339Z,5.49
2023-02-12T13:07:30.900Z,6.11
2023-02-12T13:08:33.469Z,3.93
2023-02-12T13:09:36.137Z,3.57
2023-02-12T13:10:39.067Z,6.09
2023-02-12T13:11:41.629Z,3.31
2023-02-12T13:12:44.190Z,3.27
2023-02-12T13:13:46.794Z,3.58
2023-02-12T13:14:49.335Z,7.09
2023-02-12T13:15:51.898Z,4.70
2023-02-12T13:16:54.505Z,4.15
2023-02-12T13:17:57.111Z,9.59
2023-02-12T13:18:59.705Z,5.17
2023-02-12T13:20:02.470Z,3.33
2023-02-12T13:21:05.133Z,3.05
2023-02-12T13:22:07.697Z,2.06
2023-02-12T13:23:10.257Z,7.00
2023-02-12T13:24:12.844Z,3.19
2023-02-12T13:25:15.429Z,4.65
2023-02-12T13:26:18.090Z,1.04
2023-02-12T13:27:20.650Z,1.23
2023-02-12T13:28:23.262Z,3.28
2023-02-12T13:29:25.927Z,4.05
2023-02-12T13:30:29.049Z,2.10
2023-02-12T13:31:33.969Z,2.78
2023-02-12T13:32:36.412Z,4.28
2023-02-12T13:33:39.037Z,2.79
2023-02-12T13:34:41.634Z,9.27
2023-02-12T13:35:44.807Z,4.83
2023-02-12T13:36:47.383Z,5.39
2023-02-12T13:37:49.944Z,4.43
2023-02-12T13:38:52.506Z,1.67
2023-02-12T13:39:55.100Z,9.47